createdAt,value
2023-03-07T00:02:16.013Z,3.10
2023-03-07T00:04:47.001Z,3.20
2023-03-07T00:07:15.002Z,3.30
2023-03-07T00:09:42.224Z,3.10
2023-03-07T00:12:10.479Z,3.10
2023-03-07T00:17:05.181Z,3.10
2023-03-07T00:19:32.354Z,3.20
2023-03-07T00:26:54.019Z,3.30
2023-03-07T00:29:20.949Z,3.30
2023-03-07T00:31:49.544Z,3.20
2023-03-07T00:34:16.587Z,3.10
2023-03-07T00:36:43.582Z,3.00
2023-03-07T00:39:11.081Z,3.20
2023-03-07T00:44:06.778Z,3.10
2023-03-07T00:46:33.785Z,3.10
2023-03-07T00:53:55.661Z,3.20
2023-03-07T00:56:25.646Z,3.10
2023-03-07T00:58:53.295Z,3.20
2023-03-07T01:01:25.278Z,3.20
2023-03-07T01:03:56.292Z,3.30
2023-03-07T01:06:27.353Z,3.20
2023-03-07T01:08:58.668Z,3.20
2023-03-07T01:11:27.299Z,3.10
2023-03-07T01:14:04.372Z,3.10
2023-03-07T01:16:36.005Z,3.00
2023-03-07T01:19:07.714Z,3.30
2023-03-07T01:21:39.011Z,3.10
2023-03-07T01:24:08.344Z,3.10
2023-03-07T01:26:36.073Z,3.10
2023-03-07T01:29:05.473Z,3.10
2023-03-07T01:34:04.470Z,3.30
2023-03-07T01:36:36.678Z,3.30
2023-03-07T01:39:16.870Z,3.20
2023-03-07T01:42:04.658Z,3.30
2023-03-07T01:49:51.748Z,3.20
2023-03-07T01:52:33.468Z,3.00
2023-03-07T01:55:28.774Z,2.90
2023-03-07T01:58:07.522Z,3.10
2023-03-07T02:00:36.323Z,3.00
2023-03-07T02:03:10.066Z,3.30
2023-03-07T02:05:46.903Z,3.20
2023-03-07T02:08:16.490Z,3.10
2023-03-07T02:13:11.509Z,3.30
2023-03-07T02:18:08.959Z,3.00
2023-03-07T02:21:43.991Z,3.00
2023-03-07T02:24:26.700Z,3.10
2023-03-07T02:29:21.843Z,2.90
2023-03-07T02:31:49.002Z,3.00
2023-03-07T02:34:26.889Z,3.00
2023-03-07T02:37:11.463Z,2.90
2023-03-07T02:39:44.619Z,3.00
2023-03-07T02:42:29.089Z,3.00
2023-03-07T02:45:10.010Z,2.90
2023-03-07T02:50:06.684Z,3.20
2023-03-07T02:52:35.120Z,2.90
2023-03-07T02:55:02.331Z,2.70
2023-03-07T03:02:34.364Z,2.60
2023-03-07T03:05:01.327Z,2.50
2023-03-07T03:07:28.342Z,2.70
2023-03-07T03:12:23.006Z,2.70
2023-03-07T03:19:45.582Z,2.70
2023-03-07T03:22:12.511Z,2.80
2023-03-07T03:24:43.739Z,3.40
2023-03-07T03:27:14.075Z,2.70
2023-03-07T03:32:10.416Z,3.00
2023-03-07T03:37:05.406Z,2.90
2023-03-07T03:39:32.479Z,2.90
2023-03-07T03:51:54.171Z,3.10
2023-03-07T03:54:21.118Z,3.10
2023-03-07T03:56:48.382Z,2.60
2023-03-07T03:59:15.305Z,3.10
2023-03-07T04:04:10.482Z,3.10
2023-03-07T04:11:33.607Z,2.70
2023-03-07T04:14:01.444Z,3.00
2023-03-07T04:18:58.339Z,3.20
2023-03-07T04:31:28.925Z,3.00
2023-03-07T04:33:58.587Z,3.20
2023-03-07T04:36:26.393Z,3.00
2023-03-07T04:38:53.521Z,3.70
2023-03-07T04:41:26.054Z,3.70
2023-03-07T04:48:55.750Z,3.10
2023-03-07T04:53:50.672Z,3.00
2023-03-07T04:56:17.998Z,3.10
2023-03-07T05:01:14.804Z,3.10
2023-03-07T05:06:15.508Z,2.90
2023-03-07T05:08:46.680Z,3.10
2023-03-07T05:28:37.434Z,3.10
2023-03-07T05:31:05.034Z,3.10
2023-03-07T05:33:32.314Z,2.80
2023-03-07T05:36:01.267Z,3.00
2023-03-07T05:38:29.185Z,3.00
2023-03-07T05:43:23.572Z,3.20
2023-03-07T05:48:20.000Z,3.20
2023-03-07T05:50:46.947Z,3.10
2023-03-07T05:53:14.200Z,3.20
2023-03-07T06:00:36.435Z,3.10
2023-03-07T06:03:04.132Z,3.20
2023-03-07T06:05:32.106Z,3.10
2023-03-07T06:07:59.025Z,3.10
2023-03-07T06:12:54.454Z,3.10
2023-03-07T06:15:24.446Z,3.10
2023-03-07T06:17:55.369Z,3.00
2023-03-07T06:20:22.414Z,3.00
2023-03-07T06:22:49.882Z,3.10
2023-03-07T06:25:17.093Z,3.10
2023-03-07T06:30:13.232Z,3.20
2023-03-07T06:32:41.117Z,3.10
2023-03-07T06:35:09.670Z,3.20
2023-03-07T06:37:36.980Z,3.10
2023-03-07T06:40:06.271Z,3.20
2023-03-07T06:45:05.203Z,3.30
2023-03-07T06:49:59.619Z,3.20
2023-03-07T06:57:21.983Z,3.50
2023-03-07T06:59:49.085Z,2.90
2023-03-07T07:02:16.391Z,3.30
2023-03-07T07:04:43.335Z,3.50
2023-03-07T07:07:10.941Z,3.70
2023-03-07T07:12:05.941Z,3.60
2023-03-07T07:14:34.638Z,3.40
2023-03-07T07:17:02.308Z,3.50
2023-03-07T07:19:29.400Z,3.40
2023-03-07T07:26:53.708Z,3.40
2023-03-07T07:29:21.150Z,4.00
2023-03-07T07:31:49.818Z,3.50
2023-03-07T07:34:18.731Z,4.10
2023-03-07T07:41:44.579Z,3.60
2023-03-07T07:51:47.231Z,3.80
2023-03-07T07:54:14.767Z,3.80
2023-03-07T08:04:05.622Z,4.00
2023-03-07T08:09:00.293Z,3.90
2023-03-07T08:13:54.697Z,4.00
2023-03-07T08:16:23.306Z,3.90
2023-03-07T08:18:53.751Z,4.00
2023-03-07T08:21:21.305Z,4.00
2023-03-07T08:36:08.700Z,4.20
2023-03-07T08:41:05.942Z,4.30
2023-03-07T08:43:36.352Z,4.50
2023-03-07T08:48:31.967Z,4.70
2023-03-07T08:51:09.430Z,4.70
2023-03-07T08:53:37.546Z,4.60
2023-03-07T08:56:13.647Z,4.90
2023-03-07T09:01:09.336Z,4.60
2023-03-07T09:03:36.925Z,5.00
2023-03-07T09:06:05.036Z,4.80
2023-03-07T09:11:03.455Z,4.90
2023-03-07T09:16:05.566Z,5.00
2023-03-07T09:23:29.787Z,5.20
2023-03-07T09:26:01.261Z,5.10
2023-03-07T09:35:50.457Z,5.20
2023-03-07T09:40:48.024Z,5.20
2023-03-07T09:43:27.118Z,5.50
2023-03-07T09:46:58.100Z,5.30
2023-03-07T09:49:40.837Z,5.50
2023-03-07T09:52:14.481Z,6.30
2023-03-07T09:55:16.459Z,5.30
2023-03-07T09:57:51.699Z,5.40
2023-03-07T10:03:55.698Z,5.40
2023-03-07T10:06:39.096Z,5.10
2023-03-07T10:09:12.447Z,5.20
2023-03-07T10:12:00.521Z,5.20
2023-03-07T10:14:52.232Z,4.90
2023-03-07T10:17:46.549Z,5.20
2023-03-07T10:20:31.469Z,5.00
2023-03-07T10:23:20.980Z,5.10
2023-03-07T10:25:58.761Z,5.40
2023-03-07T10:28:31.021Z,5.20
2023-03-07T10:31:01.059Z,5.50
2023-03-07T10:33:30.393Z,5.80
2023-03-07T10:36:14.259Z,5.60
2023-03-07T10:38:52.172Z,5.30
2023-03-07T10:41:21.629Z,5.10
2023-03-07T10:43:50.997Z,5.00
2023-03-07T10:46:26.916Z,5.00
2023-03-07T10:49:10.569Z,5.40
2023-03-07T10:52:04.888Z,4.90
2023-03-07T10:54:37.226Z,4.70
2023-03-07T10:57:13.794Z,2.80
2023-03-07T10:59:44.026Z,5.10
2023-03-07T11:02:29.836Z,5.00
2023-03-07T11:07:32.506Z,5.00
2023-03-07T11:10:02.021Z,4.70
2023-03-07T11:12:31.951Z,4.80
2023-03-07T11:15:15.325Z,5.00
2023-03-07T11:17:49.280Z,5.50
2023-03-07T11:20:30.152Z,4.80
2023-03-07T11:25:46.762Z,4.80
2023-03-07T11:28:26.793Z,4.70
2023-03-07T11:31:27.924Z,4.30
2023-03-07T11:34:26.589Z,4.80
2023-03-07T11:36:59.736Z,4.70
2023-03-07T11:40:03.656Z,4.90
2023-03-07T11:42:46.528Z,4.70
2023-03-07T11:45:38.246Z,4.80
2023-03-07T11:48:43.786Z,4.60
2023-03-07T11:51:39.532Z,4.80
2023-03-07T11:54:31.524Z,5.00
2023-03-07T11:57:53.426Z,4.90
2023-03-07T12:01:04.339Z,4.90
2023-03-07T12:03:55.969Z,5.00
2023-03-07T12:07:00.823Z,5.10
2023-03-07T12:10:10.196Z,4.80
2023-03-07T12:12:45.847Z,4.80
2023-03-07T12:15:44.743Z,4.90
2023-03-07T12:18:36.676Z,5.20
2023-03-07T12:21:22.196Z,5.40
2023-03-07T12:23:57.301Z,5.30
2023-03-07T12:26:28.370Z,4.80
2023-03-07T12:29:14.133Z,5.30
2023-03-07T12:31:46.537Z,5.40
2023-03-07T12:34:40.153Z,5.40
2023-03-07T12:37:16.743Z,5.40
2023-03-07T12:40:02.828Z,5.40
2023-03-07T12:42:45.883Z,6.50
2023-03-07T12:45:28.088Z,5.30
2023-03-07T12:48:10.785Z,5.40
2023-03-07T12:50:56.180Z,5.50
2023-03-07T12:53:44.253Z,5.40
2023-03-07T12:56:31.592Z,5.70
2023-03-07T12:59:17.133Z,5.70
2023-03-07T13:01:49.179Z,5.80
2023-03-07T13:04:36.489Z,5.60
2023-03-07T13:07:28.384Z,5.70
2023-03-07T13:09:58.705Z,5.80
2023-03-07T13:12:29.543Z,5.80
2023-03-07T13:17:34.878Z,5.80
2023-03-07T13:20:02.140Z,5.90
2023-03-07T13:24:58.759Z,5.80
2023-03-07T13:27:43.632Z,5.70
2023-03-07T13:30:17.982Z,5.60
2023-03-07T13:32:56.993Z,5.50
2023-03-07T13:35:35.886Z,5.60
2023-03-07T13:38:24.651Z,5.60
2023-03-07T13:43:24.175Z,5.70
2023-03-07T13:46:30.663Z,5.80
2023-03-07T13:49:02.074Z,5.60
2023-03-07T13:51:29.998Z,5.70
2023-03-07T13:54:06.269Z,5.70
2023-03-07T13:56:41.087Z,5.90
2023-03-07T13:59:14.130Z,5.70
2023-03-07T14:01:46.122Z,5.80
2023-03-07T14:07:20.237Z,5.50
2023-03-07T14:09:56.035Z,5.80
2023-03-07T14:13:05.574Z,5.50
2023-03-07T14:16:08.443Z,5.60
2023-03-07T14:18:58.068Z,5.70
2023-03-07T14:21:48.226Z,5.70
2023-03-07T14:24:44.581Z,5.60
2023-03-07T14:27:15.088Z,5.60
2023-03-07T14:29:54.414Z,5.70
2023-03-07T14:32:30.390Z,5.70
2023-03-07T14:34:58.476Z,5.70
2023-03-07T14:37:30.932Z,5.80
2023-03-07T14:40:22.781Z,5.80
2023-03-07T14:46:02.201Z,5.70
2023-03-07T14:48:57.819Z,5.70
2023-03-07T14:51:28.701Z,5.70
2023-03-07T14:53:57.181Z,5.70
2023-03-07T15:01:35.636Z,5.90
2023-03-07T15:04:08.078Z,5.80
2023-03-07T15:06:44.199Z,5.80
2023-03-07T15:09:11.603Z,6.00
2023-03-07T15:11:44.376Z,5.80
2023-03-07T15:14:18.100Z,5.90
2023-03-07T15:19:26.457Z,5.80
2023-03-07T15:22:00.613Z,5.70
2023-03-07T15:29:34.047Z,5.70
2023-03-07T15:32:07.154Z,5.80
2023-03-07T15:34:38.258Z,5.80
2023-03-07T15:37:27.226Z,6.00
2023-03-07T15:42:25.945Z,5.80
2023-03-07T15:44:58.835Z,5.70
2023-03-07T15:47:28.309Z,6.40
2023-03-07T15:49:59.121Z,5.80
2023-03-07T15:52:34.358Z,5.70
2023-03-07T15:55:15.920Z,5.80
2023-03-07T15:57:54.296Z,5.80
2023-03-07T16:00:42.813Z,5.80
2023-03-07T16:03:30.495Z,5.80
2023-03-07T16:06:00.002Z,5.70
2023-03-07T16:11:10.464Z,5.70
2023-03-07T16:13:43.925Z,5.70
2023-03-07T16:23:47.143Z,6.00
2023-03-07T16:26:22.896Z,5.60
2023-03-07T16:28:51.528Z,5.50
2023-03-07T16:33:47.364Z,5.60
2023-03-07T16:36:15.642Z,5.60
2023-03-07T16:38:43.493Z,5.50
2023-03-07T16:41:21.853Z,6.00
2023-03-07T16:43:58.892Z,5.50
2023-03-07T16:46:28.182Z,5.50
2023-03-07T16:48:55.206Z,5.70
2023-03-07T16:51:26.085Z,5.40
2023-03-07T16:53:52.995Z,5.40
2023-03-07T16:56:25.591Z,5.40
2023-03-07T16:58:53.175Z,5.50
2023-03-07T17:06:16.950Z,5.30
2023-03-07T17:08:45.023Z,5.40
2023-03-07T17:11:21.774Z,5.40
2023-03-07T17:13:53.118Z,5.30
2023-03-07T17:18:48.127Z,5.00
2023-03-07T17:21:18.725Z,5.40
2023-03-07T17:23:46.541Z,5.50
2023-03-07T17:26:32.204Z,5.40
2023-03-07T17:31:30.957Z,5.20
2023-03-07T17:33:59.149Z,5.40
2023-03-07T17:36:26.527Z,5.10
2023-03-07T17:38:53.432Z,5.10
2023-03-07T17:41:20.341Z,5.10
2023-03-07T17:43:47.252Z,5.10
2023-03-07T17:46:14.242Z,5.10
2023-03-07T17:51:12.447Z,5.10
2023-03-07T17:56:13.150Z,4.90
2023-03-07T18:01:08.455Z,5.00
2023-03-07T18:03:35.772Z,5.00
2023-03-07T18:06:02.721Z,5.00
2023-03-07T18:08:29.652Z,5.00
2023-03-07T18:11:08.074Z,5.10
2023-03-07T18:13:35.393Z,5.00
2023-03-07T18:18:36.564Z,5.20
2023-03-07T18:21:11.498Z,5.10
2023-03-07T18:26:13.624Z,5.00
2023-03-07T18:28:43.649Z,5.00
2023-03-07T18:31:18.797Z,5.00
2023-03-07T18:33:57.197Z,4.90
2023-03-07T18:41:23.863Z,4.90
2023-03-07T18:46:24.857Z,4.90
2023-03-07T18:51:26.724Z,5.10
2023-03-07T18:53:56.491Z,5.10
2023-03-07T18:58:55.758Z,5.10
2023-03-07T19:01:32.615Z,5.10
2023-03-07T19:04:03.486Z,5.20
2023-03-07T19:06:39.168Z,5.10
2023-03-07T19:09:26.062Z,5.10
2023-03-07T19:14:20.633Z,5.70
2023-03-07T19:16:47.641Z,5.10
2023-03-07T19:19:14.885Z,4.70
2023-03-07T19:21:41.916Z,5.00
2023-03-07T19:24:11.929Z,5.10
2023-03-07T19:26:40.895Z,5.10
2023-03-07T19:31:36.712Z,5.10
2023-03-07T19:39:03.000Z,4.90
2023-03-07T19:41:31.644Z,5.10
2023-03-07T19:44:00.197Z,5.20
2023-03-07T19:46:27.589Z,5.10
2023-03-07T19:48:55.753Z,5.30
2023-03-07T19:51:25.892Z,5.20
2023-03-07T19:56:29.930Z,5.20
2023-03-07T19:58:59.369Z,5.00
2023-03-07T20:01:28.422Z,5.10
2023-03-07T20:03:56.033Z,5.10
2023-03-07T20:06:26.819Z,5.10
2023-03-07T20:08:55.788Z,5.10
2023-03-07T20:11:32.919Z,5.10
2023-03-07T20:14:03.401Z,5.00
2023-03-07T20:16:30.690Z,5.20
2023-03-07T20:19:01.457Z,5.10
2023-03-07T20:21:29.136Z,4.90
2023-03-07T20:24:00.729Z,5.00
2023-03-07T20:26:37.709Z,5.00
2023-03-07T20:29:06.787Z,5.00
2023-03-07T20:31:36.006Z,5.00
2023-03-07T20:34:03.219Z,5.00
2023-03-07T20:36:35.821Z,5.00
2023-03-07T20:39:13.024Z,5.10
2023-03-07T20:41:41.133Z,5.10
2023-03-07T20:44:11.039Z,5.00
2023-03-07T20:49:05.758Z,4.90
2023-03-07T20:51:35.832Z,5.10
2023-03-07T20:54:08.909Z,5.10
2023-03-07T20:56:37.981Z,5.00
2023-03-07T21:01:34.733Z,4.80
2023-03-07T21:04:11.192Z,5.40
2023-03-07T21:06:41.811Z,5.00
2023-03-07T21:11:40.309Z,5.20
2023-03-07T21:14:08.274Z,4.90
2023-03-07T21:16:35.396Z,5.00
2023-03-07T21:19:05.527Z,5.00
2023-03-07T21:21:35.174Z,4.90
2023-03-07T21:26:33.561Z,5.00
2023-03-07T21:29:00.740Z,6.50
2023-03-07T21:31:31.025Z,5.10
2023-03-07T21:34:01.352Z,5.00
2023-03-07T21:36:31.206Z,5.00
2023-03-07T21:38:59.004Z,4.90
2023-03-07T21:43:54.864Z,5.10
2023-03-07T21:46:22.416Z,4.70
2023-03-07T21:48:49.798Z,5.00
2023-03-07T21:56:16.974Z,4.90
2023-03-07T21:58:47.375Z,3.40
2023-03-07T22:01:21.584Z,4.90
2023-03-07T22:03:51.941Z,4.90
2023-03-07T22:08:46.385Z,5.00
2023-03-07T22:16:14.160Z,4.30
2023-03-07T22:21:11.429Z,5.30
2023-03-07T22:26:11.009Z,5.00
2023-03-07T22:31:11.462Z,5.10
2023-03-07T22:38:35.820Z,5.60
2023-03-07T22:41:17.792Z,5.00
2023-03-07T22:43:45.006Z,5.10
2023-03-07T22:51:17.848Z,5.00
2023-03-07T22:56:27.270Z,5.00
2023-03-07T23:01:25.609Z,4.90
2023-03-07T23:03:54.872Z,5.00
2023-03-07T23:06:24.091Z,4.80
2023-03-07T23:08:52.845Z,4.90
2023-03-07T23:11:23.261Z,4.70
2023-03-07T23:16:21.493Z,4.90
2023-03-07T23:18:50.686Z,4.60
2023-03-07T23:21:23.912Z,4.70
2023-03-07T23:23:53.967Z,4.70
2023-03-07T23:26:36.261Z,4.80
2023-03-07T23:29:07.611Z,4.80
2023-03-07T23:31:38.664Z,4.80
2023-03-07T23:34:18.995Z,4.70
2023-03-07T23:36:46.150Z,4.80
2023-03-07T23:39:14.832Z,4.60
2023-03-07T23:44:09.888Z,4.70
2023-03-07T23:51:31.603Z,4.60
2023-03-07T23:53:58.490Z,4.60
2023-03-07T23:58:52.820Z,4.60
